createdAt,value
2023-04-10T00:02:22.373Z,100630.09
2023-04-10T00:04:49.487Z,100624.19
2023-04-10T00:07:16.981Z,100624.56
2023-04-10T00:09:43.771Z,100630.09
2023-04-10T00:12:11.233Z,100625.31
2023-04-10T00:14:38.048Z,100626.59
2023-04-10T00:17:04.879Z,100627.75
2023-04-10T00:19:31.605Z,100625.00
2023-04-10T00:21:58.329Z,100624.16
2023-04-10T00:24:25.347Z,100624.47
2023-04-10T00:26:52.175Z,100623.72
2023-04-10T00:29:19.415Z,100622.44
2023-04-10T00:31:46.172Z,100615.03
2023-04-10T00:34:14.103Z,100614.50
2023-04-10T00:36:41.066Z,100614.19
2023-04-10T00:39:09.527Z,100614.25
2023-04-10T00:41:36.265Z,100617.31
2023-04-10T00:44:03.158Z,100612.97
2023-04-10T00:46:31.175Z,100608.19
2023-04-10T00:48:58.311Z,100608.59
2023-04-10T00:51:26.574Z,100604.56
2023-04-10T00:53:55.218Z,100611.34
2023-04-10T00:56:25.909Z,100605.81
2023-04-10T00:58:52.729Z,100604.84
2023-04-10T01:01:19.537Z,100607.75
2023-04-10T01:03:46.496Z,100609.66
2023-04-10T01:06:44.371Z,100627.53
2023-04-10T01:09:40.309Z,100624.16
2023-04-10T01:12:19.010Z,100635.84
2023-04-10T01:14:56.866Z,100637.19
2023-04-10T01:17:26.604Z,100632.28
2023-04-10T01:20:13.840Z,100628.59
2023-04-10T01:23:02.396Z,100630.09
2023-04-10T01:25:35.640Z,100629.94
2023-04-10T01:28:25.136Z,100625.00
2023-04-10T01:30:57.678Z,100625.06
2023-04-10T01:33:30.794Z,100630.38
2023-04-10T01:35:58.276Z,100629.94
2023-04-10T01:38:28.041Z,100634.84
2023-04-10T01:40:55.278Z,100625.56
2023-04-10T01:43:29.485Z,100619.72
2023-04-10T01:45:57.686Z,100621.53
2023-04-10T01:48:25.904Z,100623.84
2023-04-10T01:50:53.326Z,100622.47
2023-04-10T01:53:23.600Z,100626.22
2023-04-10T01:55:51.189Z,100621.94
2023-04-10T01:58:18.902Z,100616.66
2023-04-10T02:00:46.422Z,100624.50
2023-04-10T02:03:15.645Z,100620.75
2023-04-10T02:06:10.502Z,100618.22
2023-04-10T02:08:43.140Z,100618.00
2023-04-10T02:11:50.643Z,100616.06
2023-04-10T02:14:18.441Z,100606.16
2023-04-10T02:16:50.433Z,100609.84
2023-04-10T02:19:18.060Z,100602.56
2023-04-10T02:21:48.047Z,100605.28
2023-04-10T02:24:14.944Z,100613.34
2023-04-10T02:26:48.989Z,100617.31
2023-04-10T02:29:15.852Z,100612.09
2023-04-10T02:31:43.030Z,100626.06
2023-04-10T02:34:11.078Z,100619.66
2023-04-10T02:36:39.168Z,100626.91
2023-04-10T02:39:08.254Z,100620.50
2023-04-10T02:41:44.656Z,100627.88
2023-04-10T02:44:13.742Z,100625.91
2023-04-10T02:46:42.048Z,100631.09
2023-04-10T02:49:10.464Z,100621.94
2023-04-10T02:51:37.374Z,100626.75
2023-04-10T02:54:07.378Z,100621.75
2023-04-10T02:56:35.233Z,100622.03
2023-04-10T02:59:02.165Z,100616.59
2023-04-10T03:01:30.100Z,100612.34
2023-04-10T03:03:58.330Z,100611.19
2023-04-10T03:06:28.894Z,100594.78
2023-04-10T03:08:57.302Z,100594.97
2023-04-10T03:11:24.122Z,100595.72
2023-04-10T03:13:51.441Z,100597.25
2023-04-10T03:16:18.876Z,100594.34
2023-04-10T03:18:46.870Z,100592.41
2023-04-10T03:21:13.657Z,100602.34
2023-04-10T03:23:40.404Z,100604.53
2023-04-10T03:26:07.290Z,100606.22
2023-04-10T03:28:38.160Z,100601.31
2023-04-10T03:31:05.799Z,100599.16
2023-04-10T03:33:35.619Z,100599.31
2023-04-10T03:36:04.103Z,100592.16
2023-04-10T03:38:33.060Z,100583.31
2023-04-10T03:41:00.044Z,100577.47
2023-04-10T03:43:31.120Z,100589.97
2023-04-10T03:45:58.426Z,100585.75
2023-04-10T03:48:28.292Z,100583.28
2023-04-10T03:50:55.527Z,100577.38
2023-04-10T03:53:22.943Z,100579.69
2023-04-10T03:55:52.497Z,100563.88
2023-04-10T03:58:22.368Z,100565.38
2023-04-10T04:00:50.041Z,100569.22
2023-04-10T04:03:29.044Z,100566.03
2023-04-10T04:05:58.685Z,100568.47
2023-04-10T04:08:51.351Z,100576.03
2023-04-10T04:11:35.792Z,100568.56
2023-04-10T04:14:07.218Z,100565.56
2023-04-10T04:16:52.340Z,100555.09
2023-04-10T04:19:25.362Z,100562.72
2023-04-10T04:22:10.411Z,100562.34
2023-04-10T04:24:55.761Z,100559.72
2023-04-10T04:27:33.065Z,100568.81
2023-04-10T04:30:29.052Z,100567.50
2023-04-10T04:33:14.512Z,100563.34
2023-04-10T04:35:59.853Z,100568.16
2023-04-10T04:38:52.331Z,100573.44
2023-04-10T04:41:51.636Z,100571.63
2023-04-10T04:44:32.407Z,100569.47
2023-04-10T04:47:28.429Z,100574.38
2023-04-10T04:50:09.010Z,100577.47
2023-04-10T04:53:08.814Z,100586.09
2023-04-10T04:56:02.004Z,100583.16
2023-04-10T04:58:47.181Z,100584.63
2023-04-10T05:01:45.972Z,100583.22
2023-04-10T05:04:23.805Z,100585.41
2023-04-10T05:07:17.332Z,100583.81
2023-04-10T05:09:46.762Z,100592.03
2023-04-10T05:12:35.772Z,100591.38
2023-04-10T05:15:15.780Z,100582.75
2023-04-10T05:18:01.159Z,100586.75
2023-04-10T05:20:56.589Z,100585.28
2023-04-10T05:23:52.538Z,100590.09
2023-04-10T05:26:28.483Z,100584.81
2023-04-10T05:29:15.639Z,100581.22
2023-04-10T05:31:42.340Z,100580.97
2023-04-10T05:34:29.059Z,100584.59
2023-04-10T05:37:13.005Z,100584.97
2023-04-10T05:39:59.575Z,100586.81
2023-04-10T05:42:30.822Z,100596.22
2023-04-10T05:45:15.034Z,100589.63
2023-04-10T05:47:56.308Z,100595.84
2023-04-10T05:50:38.762Z,100596.28
2023-04-10T05:53:31.855Z,100595.53
2023-04-10T05:56:21.189Z,100590.72
2023-04-10T05:58:59.969Z,100593.03
2023-04-10T06:01:47.216Z,100594.22
2023-04-10T06:04:15.749Z,100590.66
2023-04-10T06:06:42.600Z,100590.47
2023-04-10T06:09:10.720Z,100590.94
2023-04-10T06:11:37.612Z,100597.06
2023-04-10T06:14:04.367Z,100589.13
2023-04-10T06:16:38.460Z,100593.09
2023-04-10T06:19:05.409Z,100584.41
2023-04-10T06:21:32.225Z,100579.38
2023-04-10T06:23:59.006Z,100586.03
2023-04-10T06:26:28.091Z,100587.97
2023-04-10T06:28:56.489Z,100582.56
2023-04-10T06:31:24.332Z,100581.84
2023-04-10T06:33:51.638Z,100570.59
2023-04-10T06:36:18.698Z,100574.50
2023-04-10T06:38:58.506Z,100569.63
2023-04-10T06:41:26.883Z,100573.25
2023-04-10T06:43:55.483Z,100571.03
2023-04-10T06:46:22.296Z,100564.25
2023-04-10T06:48:49.089Z,100566.97
2023-04-10T06:51:16.078Z,100566.75
2023-04-10T06:53:42.825Z,100562.94
2023-04-10T06:56:09.992Z,100555.88
2023-04-10T06:58:36.919Z,100558.38
2023-04-10T07:01:04.620Z,100555.44
2023-04-10T07:03:35.774Z,100548.09
2023-04-10T07:06:03.467Z,100557.31
2023-04-10T07:08:31.445Z,100551.72
2023-04-10T07:10:58.858Z,100548.84
2023-04-10T07:13:25.944Z,100548.75
2023-04-10T07:15:52.802Z,100552.69
2023-04-10T07:18:20.502Z,100543.53
2023-04-10T07:20:48.510Z,100546.38
2023-04-10T07:23:16.566Z,100535.75
2023-04-10T07:25:43.302Z,100536.59
2023-04-10T07:28:09.993Z,100536.28
2023-04-10T07:30:37.428Z,100532.47
2023-04-10T07:33:04.520Z,100533.72
2023-04-10T07:35:31.595Z,100534.22
2023-04-10T07:37:58.314Z,100524.25
2023-04-10T07:40:25.048Z,100525.38
2023-04-10T07:42:53.759Z,100525.50
2023-04-10T07:45:23.008Z,100526.63
2023-04-10T07:47:49.961Z,100523.41
2023-04-10T07:50:17.512Z,100519.66
2023-04-10T07:52:44.211Z,100520.81
2023-04-10T07:55:11.113Z,100516.84
2023-04-10T07:57:37.950Z,100512.06
2023-04-10T08:00:05.160Z,100510.75
2023-04-10T08:02:40.925Z,100506.56
2023-04-10T08:05:08.274Z,100501.75
2023-04-10T08:07:38.236Z,100503.94
2023-04-10T08:10:05.872Z,100494.78
2023-04-10T08:12:38.520Z,100506.00
2023-04-10T08:15:11.127Z,100497.94
2023-04-10T08:17:38.262Z,100495.66
2023-04-10T08:20:06.656Z,100490.00
2023-04-10T08:22:33.462Z,100496.66
2023-04-10T08:25:02.104Z,100492.91
2023-04-10T08:27:34.304Z,100496.19
2023-04-10T08:30:01.535Z,100498.72
2023-04-10T08:32:29.147Z,100502.00
2023-04-10T08:34:56.603Z,100494.63
2023-04-10T08:37:24.412Z,100494.38
2023-04-10T08:39:56.143Z,100483.75
2023-04-10T08:42:27.365Z,100484.38
2023-04-10T08:45:00.070Z,100487.63
2023-04-10T08:47:28.916Z,100491.84
2023-04-10T08:50:03.243Z,100488.84
2023-04-10T08:52:36.434Z,100489.44
2023-04-10T08:55:08.681Z,100488.22
2023-04-10T08:57:39.084Z,100481.81
2023-04-10T09:00:22.176Z,100490.16
2023-04-10T09:02:56.666Z,100483.63
2023-04-10T09:05:28.683Z,100474.81
2023-04-10T09:07:57.426Z,100476.28
2023-04-10T09:10:29.036Z,100473.63
2023-04-10T09:12:57.489Z,100476.97
2023-04-10T09:15:34.741Z,100465.25
2023-04-10T09:18:03.135Z,100467.69
2023-04-10T09:20:34.611Z,100456.66
2023-04-10T09:23:04.746Z,100458.84
2023-04-10T09:25:38.278Z,100450.25
2023-04-10T09:28:11.627Z,100436.00
2023-04-10T09:30:43.137Z,100428.75
2023-04-10T09:33:29.277Z,100427.88
2023-04-10T09:36:08.969Z,100413.97
2023-04-10T09:38:43.364Z,100416.97
2023-04-10T09:41:18.107Z,100415.03
2023-04-10T09:43:47.021Z,100407.78
2023-04-10T09:46:27.343Z,100410.44
2023-04-10T09:49:03.056Z,100407.16
2023-04-10T09:51:36.146Z,100405.81
2023-04-10T09:54:06.083Z,100405.81
2023-04-10T09:56:34.680Z,100397.44
2023-04-10T09:59:03.103Z,100383.16
2023-04-10T10:01:37.553Z,100377.56
2023-04-10T10:04:05.500Z,100382.50
2023-04-10T10:06:38.335Z,100379.13
2023-04-10T10:09:05.793Z,100376.56
2023-04-10T10:11:35.401Z,100371.84
2023-04-10T10:14:13.860Z,100358.25
2023-04-10T10:16:47.464Z,100357.16
2023-04-10T10:19:29.600Z,100354.63
2023-04-10T10:21:56.942Z,100348.56
2023-04-10T10:24:27.477Z,100341.47
2023-04-10T10:27:00.886Z,100323.28
2023-04-10T10:29:32.318Z,100325.78
2023-04-10T10:32:03.055Z,100332.28
2023-04-10T10:34:36.315Z,100317.00
2023-04-10T10:37:11.872Z,100307.47
2023-04-10T10:40:00.576Z,100313.91
2023-04-10T10:42:36.306Z,100306.25
2023-04-10T10:45:12.402Z,100298.94
2023-04-10T10:47:42.838Z,100301.91
2023-04-10T10:50:09.946Z,100299.25
2023-04-10T10:52:39.240Z,100295.63
2023-04-10T10:55:38.697Z,100294.06
2023-04-10T10:58:08.582Z,100297.03
2023-04-10T11:01:04.155Z,100288.31
2023-04-10T11:03:40.744Z,100284.31
2023-04-10T11:06:14.865Z,100288.25
2023-04-10T11:08:49.186Z,100281.78
2023-04-10T11:11:33.440Z,100277.59
2023-04-10T11:14:07.109Z,100277.44
2023-04-10T11:16:37.813Z,100278.88
2023-04-10T11:19:22.815Z,100272.56
2023-04-10T11:22:08.141Z,100261.34
2023-04-10T11:25:02.095Z,100270.31
2023-04-10T11:27:40.085Z,100268.22
2023-04-10T11:30:36.028Z,100262.75
2023-04-10T11:33:04.886Z,100254.06
2023-04-10T11:35:34.830Z,100245.81
2023-04-10T11:38:13.147Z,100247.59
2023-04-10T11:40:57.384Z,100248.47
2023-04-10T11:43:29.371Z,100237.13
2023-04-10T11:46:14.349Z,100237.25
2023-04-10T11:48:41.265Z,100241.03
2023-04-10T11:51:12.895Z,100229.25
2023-04-10T11:53:43.069Z,100223.34
2023-04-10T11:56:21.842Z,100205.97
2023-04-10T11:58:51.080Z,100203.28
2023-04-10T12:01:21.247Z,100205.53
2023-04-10T12:03:48.444Z,100191.91
2023-04-10T12:06:16.096Z,100194.16
2023-04-10T12:08:46.239Z,100190.53
2023-04-10T12:11:13.625Z,100191.91
2023-04-10T12:13:41.032Z,100190.63
2023-04-10T12:16:10.882Z,100190.91
2023-04-10T12:18:38.793Z,100182.06
2023-04-10T12:21:12.806Z,100192.72
2023-04-10T12:23:40.108Z,100175.06
2023-04-10T12:26:12.670Z,100171.41
2023-04-10T12:28:43.385Z,100174.06
2023-04-10T12:31:16.519Z,100162.97
2023-04-10T12:33:50.955Z,100162.97
2023-04-10T12:36:29.794Z,100166.06
2023-04-10T12:39:02.139Z,100156.63
2023-04-10T12:41:31.163Z,100156.38
2023-04-10T12:44:08.642Z,100154.84
2023-04-10T12:46:38.760Z,100154.38
2023-04-10T12:49:09.731Z,100141.72
2023-04-10T12:51:52.917Z,100135.88
2023-04-10T12:54:29.000Z,100139.75
2023-04-10T12:56:58.320Z,100139.16
2023-04-10T12:59:28.958Z,100130.72
2023-04-10T13:01:56.109Z,100128.88
2023-04-10T13:04:23.612Z,100120.44
2023-04-10T13:06:54.208Z,100125.22
2023-04-10T13:09:21.802Z,100116.06
2023-04-10T13:11:50.369Z,100111.25
2023-04-10T13:14:18.723Z,100097.06
2023-04-10T13:16:46.194Z,100103.13
2023-04-10T13:19:13.162Z,100110.25
2023-04-10T13:21:43.915Z,100109.81
2023-04-10T13:24:11.105Z,100108.97
2023-04-10T13:26:38.256Z,100109.38
2023-04-10T13:29:05.256Z,100110.06
2023-04-10T13:31:32.149Z,100103.28
2023-04-10T13:33:58.895Z,100090.75
2023-04-10T13:36:26.934Z,100094.97
2023-04-10T13:38:54.398Z,100093.00
2023-04-10T13:41:24.406Z,100074.16
2023-04-10T13:43:53.413Z,100068.97
2023-04-10T13:46:23.599Z,100067.69
2023-04-10T13:48:50.745Z,100067.22
2023-04-10T13:51:17.701Z,100062.72
2023-04-10T13:53:44.501Z,100065.38
2023-04-10T13:56:11.241Z,100056.06
2023-04-10T13:58:38.776Z,100047.22
2023-04-10T14:01:09.846Z,100051.97
2023-04-10T14:03:41.569Z,100044.78
2023-04-10T14:06:12.368Z,100046.31
2023-04-10T14:08:39.447Z,100033.09
2023-04-10T14:11:06.596Z,100025.78
2023-04-10T14:13:33.480Z,100025.63
2023-04-10T14:16:01.728Z,100020.81
2023-04-10T14:18:28.753Z,100018.50
2023-04-10T14:20:59.082Z,100006.00
2023-04-10T14:23:31.072Z,99996.69
2023-04-10T14:25:57.969Z,100000.69
2023-04-10T14:28:25.141Z,99998.22
2023-04-10T14:30:52.379Z,99996.50
2023-04-10T14:33:21.849Z,99998.41
2023-04-10T14:35:55.345Z,99996.97
2023-04-10T14:38:22.157Z,99993.97
2023-04-10T14:40:50.317Z,99997.19
2023-04-10T14:43:17.393Z,99997.88
2023-04-10T14:45:44.558Z,99983.00
2023-04-10T14:48:14.202Z,99989.72
2023-04-10T14:50:41.132Z,99982.34
2023-04-10T14:53:09.738Z,99982.06
2023-04-10T14:55:37.247Z,99966.16
2023-04-10T14:58:06.532Z,99969.34
2023-04-10T15:00:33.349Z,99959.34
2023-04-10T15:03:00.381Z,99966.66
2023-04-10T15:05:27.625Z,99957.34
2023-04-10T15:07:55.157Z,99951.69
2023-04-10T15:10:22.118Z,99945.34
2023-04-10T15:12:48.945Z,99937.97
2023-04-10T15:15:15.735Z,99931.66
2023-04-10T15:17:42.694Z,99930.66
2023-04-10T15:20:11.062Z,99920.97
2023-04-10T15:22:37.845Z,99922.47
2023-04-10T15:25:04.935Z,99916.31
2023-04-10T15:27:31.674Z,99911.94
2023-04-10T15:29:58.695Z,99901.44
2023-04-10T15:32:25.809Z,99901.44
2023-04-10T15:34:52.676Z,99903.25
2023-04-10T15:37:19.767Z,99898.22
2023-04-10T15:39:46.553Z,99898.91
2023-04-10T15:42:13.422Z,99892.72
2023-04-10T15:44:40.174Z,99884.84
2023-04-10T15:47:07.013Z,99891.91
2023-04-10T15:49:38.009Z,99881.34
2023-04-10T15:52:06.331Z,99886.56
2023-04-10T15:54:34.149Z,99879.19
2023-04-10T15:57:02.039Z,99879.50
2023-04-10T15:59:29.199Z,99874.69
2023-04-10T16:01:56.289Z,99862.31
2023-04-10T16:04:23.739Z,99874.69
2023-04-10T16:06:50.820Z,99870.34
2023-04-10T16:11:47.958Z,99859.31
2023-04-10T16:14:14.700Z,99864.66
2023-04-10T16:16:41.548Z,99863.19
2023-04-10T16:19:08.818Z,99858.69
2023-04-10T16:21:35.728Z,99838.13
2023-04-10T16:24:10.986Z,99827.44
2023-04-10T16:26:37.859Z,99821.44
2023-04-10T16:29:04.586Z,99818.59
2023-04-10T16:31:31.788Z,99807.88
2023-04-10T16:33:58.615Z,99810.56
2023-04-10T16:36:25.573Z,99800.88
2023-04-10T16:38:52.392Z,99811.91
2023-04-10T16:41:22.775Z,99797.19
2023-04-10T16:43:51.503Z,99792.69
2023-04-10T16:46:18.287Z,99789.19
2023-04-10T16:48:53.959Z,99786.34
2023-04-10T16:51:22.102Z,99791.50
2023-04-10T16:53:48.920Z,99788.84
2023-04-10T16:56:15.577Z,99790.00
2023-04-10T16:58:42.737Z,99788.34
2023-04-10T17:01:18.043Z,99792.66
2023-04-10T17:03:48.180Z,99801.84
2023-04-10T17:06:17.984Z,99797.81
2023-04-10T17:08:45.816Z,99795.84
2023-04-10T17:11:12.853Z,99790.00
2023-04-10T17:13:50.664Z,99772.78
2023-04-10T17:16:20.696Z,99781.97
2023-04-10T17:18:47.574Z,99773.94
2023-04-10T17:21:15.519Z,99773.44
2023-04-10T17:23:44.911Z,99768.75
2023-04-10T17:26:16.110Z,99769.91
2023-04-10T17:28:46.763Z,99763.59
2023-04-10T17:31:13.991Z,99751.41
2023-04-10T17:33:44.083Z,99753.56
2023-04-10T17:36:12.277Z,99747.56
2023-04-10T17:38:40.387Z,99742.22
2023-04-10T17:41:09.772Z,99744.03
2023-04-10T17:43:36.513Z,99735.34
2023-04-10T17:46:03.302Z,99742.53
2023-04-10T17:48:30.527Z,99744.38
2023-04-10T17:50:57.977Z,99746.06
2023-04-10T17:53:27.512Z,99744.38
2023-04-10T17:55:57.169Z,99740.84
2023-04-10T17:58:24.619Z,99719.47
2023-04-10T18:00:57.340Z,99713.47
2023-04-10T18:03:24.199Z,99710.78
2023-04-10T18:05:55.566Z,99700.28
2023-04-10T18:08:22.503Z,99685.22
2023-04-10T18:10:52.240Z,99688.09
2023-04-10T18:13:21.585Z,99687.91
2023-04-10T18:15:51.266Z,99689.59
2023-04-10T18:18:17.952Z,99699.41
2023-04-10T18:20:44.642Z,99718.31
2023-04-10T18:23:11.491Z,99729.00
2023-04-10T18:25:38.245Z,99709.63
2023-04-10T18:28:14.453Z,99705.94
2023-04-10T18:30:44.234Z,99731.00
2023-04-10T18:33:11.684Z,99742.50
2023-04-10T18:35:38.884Z,99747.03
2023-04-10T18:38:06.106Z,99749.69
2023-04-10T18:40:34.890Z,99741.69
2023-04-10T18:43:01.668Z,99748.88
2023-04-10T18:45:28.520Z,99754.03
2023-04-10T18:47:55.438Z,99749.53
2023-04-10T18:50:22.307Z,99755.72
2023-04-10T18:52:49.218Z,99744.34
2023-04-10T18:55:16.181Z,99748.03
2023-04-10T18:57:43.110Z,99741.69
2023-04-10T19:00:11.705Z,99749.03
2023-04-10T19:02:38.995Z,99759.56
2023-04-10T19:05:06.291Z,99754.88
2023-04-10T19:07:33.091Z,99748.53
2023-04-10T19:09:59.925Z,99744.34
2023-04-10T19:12:26.660Z,99736.19
2023-04-10T19:14:53.402Z,99740.84
2023-04-10T19:17:21.809Z,99741.19
2023-04-10T19:19:48.833Z,99749.03
2023-04-10T19:22:16.345Z,99753.38
2023-04-10T19:24:43.306Z,99753.38
2023-04-10T19:27:10.329Z,99759.72
2023-04-10T19:29:37.022Z,99750.19
2023-04-10T19:32:04.064Z,99751.00
2023-04-10T19:34:31.073Z,99758.38
2023-04-10T19:36:58.406Z,99755.97
2023-04-10T19:39:25.233Z,99750.38
2023-04-10T19:41:52.006Z,99738.28
2023-04-10T19:44:18.847Z,99739.31
2023-04-10T19:46:48.323Z,99731.78
2023-04-10T19:49:15.331Z,99737.25
2023-04-10T19:51:42.081Z,99741.63
2023-04-10T19:54:08.819Z,99732.09
2023-04-10T19:56:37.809Z,99729.25
2023-04-10T19:59:05.071Z,99738.28
2023-04-10T20:01:33.727Z,99732.59
2023-04-10T20:04:00.794Z,99723.91
2023-04-10T20:06:27.640Z,99729.94
2023-04-10T20:08:54.658Z,99730.06
2023-04-10T20:11:21.691Z,99727.41
2023-04-10T20:13:48.472Z,99717.88
2023-04-10T20:16:15.851Z,99717.53
2023-04-10T20:18:42.555Z,99711.38
2023-04-10T20:21:09.367Z,99715.38
2023-04-10T20:23:37.442Z,99713.53
2023-04-10T20:26:04.156Z,99711.00
2023-04-10T20:28:31.659Z,99701.50
2023-04-10T20:30:58.380Z,99703.50
2023-04-10T20:33:25.155Z,99694.16
2023-04-10T20:35:52.936Z,99690.47
2023-04-10T20:38:19.676Z,99692.09
2023-04-10T20:40:46.475Z,99679.44
2023-04-10T20:43:14.100Z,99679.75
2023-04-10T20:45:41.299Z,99681.44
2023-04-10T20:48:12.033Z,99669.09
2023-04-10T20:50:49.403Z,99679.56
2023-04-10T20:53:16.448Z,99681.59
2023-04-10T20:55:43.495Z,99681.28
2023-04-10T20:58:10.301Z,99677.09
2023-04-10T21:00:38.294Z,99681.44
2023-04-10T21:03:05.836Z,99672.59
2023-04-10T21:05:32.917Z,99680.13
2023-04-10T21:07:59.738Z,99663.59
2023-04-10T21:10:26.743Z,99666.25
2023-04-10T21:12:53.753Z,99669.75
2023-04-10T21:15:20.702Z,99670.94
2023-04-10T21:17:51.346Z,99677.59
2023-04-10T21:20:18.182Z,99677.44
2023-04-10T21:22:45.775Z,99679.09
2023-04-10T21:25:12.745Z,99675.44
2023-04-10T21:27:39.607Z,99680.31
2023-04-10T21:30:07.368Z,99674.97
2023-04-10T21:32:34.294Z,99659.25
2023-04-10T21:35:01.908Z,99657.09
2023-04-10T21:37:31.706Z,99651.91
2023-04-10T21:40:03.986Z,99652.91
2023-04-10T21:42:33.386Z,99642.72
2023-04-10T21:45:03.392Z,99642.56
2023-04-10T21:47:30.479Z,99627.88
2023-04-10T21:49:57.397Z,99618.34
2023-04-10T21:52:24.150Z,99635.88
2023-04-10T21:54:50.905Z,99636.56
2023-04-10T21:57:17.961Z,99629.72
2023-04-10T21:59:44.999Z,99619.03
2023-04-10T22:02:14.994Z,99618.69
2023-04-10T22:04:53.877Z,99613.34
2023-04-10T22:07:21.789Z,99595.69
2023-04-10T22:09:48.757Z,99586.97
2023-04-10T22:12:15.958Z,99586.16
2023-04-10T22:14:42.920Z,99580.97
2023-04-10T22:17:09.875Z,99571.13
2023-04-10T22:19:37.222Z,99544.75
2023-04-10T22:22:03.959Z,99530.91
2023-04-10T22:24:33.862Z,99513.88
2023-04-10T22:27:01.883Z,99520.22
2023-04-10T22:29:28.596Z,99521.56
2023-04-10T22:31:56.046Z,99527.72
2023-04-10T22:34:22.928Z,99517.41
2023-04-10T22:36:52.048Z,99515.56
2023-04-10T22:39:18.861Z,99507.34
2023-04-10T22:41:45.752Z,99504.38
2023-04-10T22:44:12.614Z,99499.19
2023-04-10T22:46:39.442Z,99505.53
2023-04-10T22:49:07.043Z,99503.50
2023-04-10T22:51:33.796Z,99500.84
2023-04-10T22:54:00.622Z,99500.84
2023-04-10T22:56:29.282Z,99513.88
2023-04-10T22:58:56.578Z,99510.69
2023-04-10T23:01:23.743Z,99511.53
2023-04-10T23:03:53.770Z,99501.84
2023-04-10T23:06:20.765Z,99494.66
2023-04-10T23:08:47.487Z,99488.97
2023-04-10T23:11:14.298Z,99492.50
2023-04-10T23:13:42.928Z,99497.84
2023-04-10T23:16:10.251Z,99484.31
2023-04-10T23:18:37.676Z,99485.47
2023-04-10T23:21:06.952Z,99491.97
2023-04-10T23:23:33.765Z,99503.69
2023-04-10T23:26:00.966Z,99497.31
2023-04-10T23:28:28.406Z,99496.34
2023-04-10T23:30:55.140Z,99514.72
2023-04-10T23:33:22.292Z,99520.06
2023-04-10T23:35:49.172Z,99517.19
2023-04-10T23:38:15.989Z,99513.88
2023-04-10T23:40:42.675Z,99539.25
2023-04-10T23:43:09.462Z,99541.41
2023-04-10T23:45:36.447Z,99552.25
2023-04-10T23:48:03.236Z,99558.75
2023-04-10T23:50:31.992Z,99562.78
2023-04-10T23:52:59.983Z,99554.25
2023-04-10T23:55:26.928Z,99552.25
2023-04-10T23:57:56.359Z,99532.56
